Time;durP1;ratioP1;P1;durP2;ratioP2;P2;SDS_P1;SDS_P2;PMS_P1;PMS_P2;Temp;Humidity;BMP_temperature;BMP_pressure;BME280_temperature;BME280_humidity;BME280_pressure;Samples;Min_cycle;Max_cycle;Signal;HPM_P1;HPM_P2
2022/07/03 00:01:26;;;;;;;0.20;0.15;;;17.50;99.90;;;;;;4941743;28;90067;-33
2022/07/03 00:03:52;;;;;;;0.45;0.45;;;17.40;99.90;;;;;;4942050;28;88879;-33
2022/07/03 00:06:18;;;;;;;0.20;0.10;;;17.40;99.90;;;;;;4941633;28;90265;-33
2022/07/03 00:08:43;;;;;;;0.20;0.05;;;17.40;99.90;;;;;;4940592;28;90857;-36
2022/07/03 00:11:09;;;;;;;0.20;0.00;;;17.40;99.90;;;;;;4941469;28;91847;-35
2022/07/03 00:13:35;;;;;;;0.80;0.10;;;17.40;99.90;;;;;;4939559;28;88635;-37
2022/07/03 00:16:01;;;;;;;0.20;0.15;;;17.40;99.90;;;;;;4941987;28;90221;-34
2022/07/03 00:18:27;;;;;;;0.20;0.08;;;17.40;99.90;;;;;;4941485;28;89673;-34
2022/07/03 00:21:01;;;;;;;0.20;0.20;;;17.40;99.90;;;;;;4942001;28;90380;-36
2022/07/03 00:23:29;;;;;;;0.40;0.40;;;17.40;99.90;;;;;;4941855;28;89905;-35
2022/07/03 00:25:57;;;;;;;0.20;0.08;;;17.40;99.90;;;;;;4941462;28;90269;-35
2022/07/03 00:28:24;;;;;;;0.20;0.10;;;17.40;99.90;;;;;;4941611;28;89864;-38
2022/07/03 00:30:51;;;;;;;0.20;0.20;;;17.30;99.90;;;;;;4941730;28;88850;-35
2022/07/03 00:33:19;;;;;;;0.20;0.20;;;17.30;99.90;;;;;;4941084;28;88071;-34
2022/07/03 00:35:46;;;;;;;0.52;0.50;;;17.20;99.90;;;;;;4940942;28;90453;-34
2022/07/03 00:38:12;;;;;;;0.20;0.10;;;17.10;99.90;;;;;;4941245;28;89781;-33
2022/07/03 00:40:38;;;;;;;0.30;0.20;;;17.10;99.90;;;;;;4941756;28;91656;-33
2022/07/03 00:43:04;;;;;;;0.20;0.10;;;17.10;99.90;;;;;;4941865;28;87968;-34
2022/07/03 00:45:34;;;;;;;0.22;0.13;;;17.10;99.90;;;;;;4941969;28;90428;-35
2022/07/03 00:48:00;;;;;;;0.20;0.10;;;17.10;99.90;;;;;;4941604;28;88702;-36
2022/07/03 00:50:34;;;;;;;0.20;0.20;;;17.10;99.90;;;;;;4941768;28;89972;-33
2022/07/03 00:53:02;;;;;;;1.35;1.30;;;17.10;99.90;;;;;;4941795;28;88780;-34
2022/07/03 00:55:28;;;;;;;0.20;0.10;;;17.10;99.90;;;;;;4940495;28;90150;-37
2022/07/03 00:57:56;;;;;;;0.20;0.10;;;17.00;99.90;;;;;;4939792;28;90701;-35
2022/07/03 01:00:22;;;;;;;1.10;0.93;;;17.00;99.90;;;;;;4940991;28;90415;-35
2022/07/03 01:02:59;;;;;;;0.20;0.05;;;17.00;99.90;;;;;;4941589;28;89107;-35
2022/07/03 01:05:24;;;;;;;0.30;0.25;;;16.90;99.90;;;;;;4941467;28;91709;-33
2022/07/03 01:08:20;;;;;;;0.20;0.10;;;16.90;99.90;;;;;;4940255;28;89598;-36
2022/07/03 01:11:18;;;;;;;0.20;0.10;;;16.80;99.90;;;;;;4973192;22;88605;-37
2022/07/03 01:13:58;;;;;;;0.20;0.10;;;16.70;99.90;;;;;;4940727;28;89529;-36
2022/07/03 01:16:49;;;;;;;0.20;0.17;;;16.70;99.90;;;;;;4941154;28;90301;-37
2022/07/03 01:19:36;;;;;;;0.20;0.10;;;16.60;99.90;;;;;;4941352;28;89301;-35
2022/07/03 01:22:32;;;;;;;0.60;0.45;;;16.60;99.90;;;;;;4939668;28;89745;-34
2022/07/03 01:25:09;;;;;;;0.20;0.03;;;16.60;99.90;;;;;;4940647;28;89375;-35
2022/07/03 01:27:58;;;;;;;0.20;0.10;;;16.50;99.90;;;;;;4940650;28;89873;-35
2022/07/03 01:30:27;;;;;;;0.20;0.20;;;16.50;99.90;;;;;;4940551;28;90538;-38
2022/07/03 01:33:08;;;;;;;0.30;0.30;;;16.40;99.90;;;;;;4941150;28;89713;-36
2022/07/03 01:35:35;;;;;;;0.65;0.65;;;16.40;99.90;;;;;;4941132;28;87876;-34
2022/07/03 01:38:04;;;;;;;0.65;0.65;;;16.40;99.90;;;;;;4940220;28;90239;-35
2022/07/03 01:40:33;;;;;;;0.57;0.57;;;16.40;99.90;;;;;;4940801;28;89831;-35
2022/07/03 01:43:01;;;;;;;0.20;0.10;;;16.40;99.90;;;;;;4941000;28;89744;-35
2022/07/03 01:45:28;;;;;;;0.20;0.17;;;16.40;99.90;;;;;;4940980;28;88870;-36
2022/07/03 01:47:57;;;;;;;0.20;0.17;;;16.30;99.90;;;;;;4939624;28;90661;-31
2022/07/03 01:50:25;;;;;;;0.28;0.15;;;16.30;99.90;;;;;;4939617;28;90524;-34
2022/07/03 01:52:53;;;;;;;0.20;0.20;;;16.20;99.90;;;;;;4939805;28;90348;-37
2022/07/03 01:55:20;;;;;;;0.30;0.30;;;16.20;99.90;;;;;;4940948;28;88956;-35
2022/07/03 01:57:50;;;;;;;0.20;0.10;;;16.20;99.90;;;;;;4939965;28;90405;-36
2022/07/03 02:00:19;;;;;;;0.30;0.30;;;16.10;99.90;;;;;;4940437;28;90522;-34
2022/07/03 02:03:04;;;;;;;0.40;0.35;;;16.00;99.90;;;;;;4939389;28;90221;-35
2022/07/03 02:05:35;;;;;;;0.20;0.10;;;15.90;99.90;;;;;;4939114;28;88727;-34
2022/07/03 02:08:00;;;;;;;0.20;0.17;;;15.80;99.90;;;;;;4939580;28;90013;-33
2022/07/03 02:10:35;;;;;;;0.20;0.10;;;15.80;99.90;;;;;;4939706;28;89739;-38
2022/07/03 02:13:09;;;;;;;0.20;0.10;;;15.70;99.90;;;;;;4939752;28;89684;-35
2022/07/03 02:15:35;;;;;;;0.20;0.15;;;15.60;99.90;;;;;;4940321;28;90428;-40
2022/07/03 02:18:15;;;;;;;0.30;0.30;;;15.60;99.90;;;;;;4940573;28;90070;-33
2022/07/03 02:20:46;;;;;;;0.20;0.10;;;15.60;99.90;;;;;;4940486;28;89781;-34
2022/07/03 02:23:15;;;;;;;0.75;0.75;;;15.50;99.90;;;;;;4940437;28;89698;-36
2022/07/03 02:25:44;;;;;;;0.20;0.10;;;15.50;99.90;;;;;;4940480;28;88997;-33
2022/07/03 02:28:25;;;;;;;;;;;15.50;99.90;;;;;;4940973;28;90136;-35
2022/07/03 02:30:58;;;;;;;0.20;0.20;;;15.50;99.90;;;;;;4941727;28;88769;-34
2022/07/03 02:33:30;;;;;;;0.20;0.10;;;15.50;99.90;;;;;;4939280;28;89334;-36
2022/07/03 02:35:57;;;;;;;0.20;0.10;;;15.50;99.90;;;;;;4939816;28;88424;-36
2022/07/03 02:38:24;;;;;;;0.20;0.00;;;15.50;99.90;;;;;;4939398;28;90045;-33
2022/07/03 02:41:17;;;;;;;0.30;0.28;;;15.40;99.90;;;;;;4939168;28;90757;-36
2022/07/03 02:44:02;;;;;;;0.20;0.20;;;15.50;99.90;;;;;;4939186;28;90500;-33
2022/07/03 02:46:52;;;;;;;0.30;0.30;;;15.40;99.90;;;;;;4940331;28;89540;-35
2022/07/03 02:50:05;;;;;;;0.20;0.10;;;15.50;99.90;;;;;;4939370;28;90344;-35
2022/07/03 02:52:42;;;;;;;0.38;0.38;;;15.40;99.90;;;;;;4917250;28;89973;-35
2022/07/03 02:55:22;;;;;;;0.20;0.10;;;15.40;99.90;;;;;;4917372;28;89227;-34
2022/07/03 02:58:02;;;;;;;0.28;0.28;;;15.40;99.90;;;;;;4930964;28;87673;-33
2022/07/03 03:00:32;;;;;;;0.20;0.10;;;15.30;99.90;;;;;;4940322;28;88970;-35
2022/07/03 03:02:58;;;;;;;0.20;0.10;;;15.30;99.90;;;;;;4939837;28;89896;-33
2022/07/03 03:06:02;;;;;;;0.77;0.65;;;15.20;99.90;;;;;;4939648;28;89244;-35
2022/07/03 03:08:50;;;;;;;1.92;0.55;;;15.20;99.90;;;;;;4926033;28;89024;-35
2022/07/03 03:11:44;;;;;;;0.20;0.10;;;15.10;99.90;;;;;;4938941;28;88811;-36
2022/07/03 03:14:19;;;;;;;0.20;0.10;;;15.10;99.90;;;;;;4939662;28;89767;-33
2022/07/03 03:16:51;;;;;;;0.20;0.10;;;15.10;99.90;;;;;;4938994;28;89540;-37
2022/07/03 03:19:22;;;;;;;0.30;0.30;;;15.00;99.90;;;;;;4939933;28;88830;-33
2022/07/03 03:22:06;;;;;;;0.30;0.28;;;15.00;99.90;;;;;;4938956;28;90268;-36
2022/07/03 03:24:33;;;;;;;0.20;0.10;;;14.90;99.90;;;;;;4938836;28;89078;-36
2022/07/03 03:26:59;;;;;;;0.20;0.20;;;14.90;99.90;;;;;;4939084;28;88955;-33
2022/07/03 03:29:26;;;;;;;0.20;0.10;;;14.90;99.90;;;;;;4940279;28;89450;-33
2022/07/03 03:31:52;;;;;;;0.35;0.35;;;14.90;99.90;;;;;;4938343;28;90939;-36
2022/07/03 03:34:20;;;;;;;0.20;0.10;;;14.90;99.90;;;;;;4938864;28;90588;-36
2022/07/03 03:36:45;;;;;;;0.40;0.40;;;15.00;99.90;;;;;;4939161;28;90037;-36
2022/07/03 03:39:12;;;;;;;0.20;0.10;;;15.00;99.90;;;;;;4939012;28;88390;-34
2022/07/03 03:41:38;;;;;;;0.20;0.20;;;15.10;99.90;;;;;;4939267;28;90110;-35
2022/07/03 03:44:04;;;;;;;0.45;0.45;;;15.10;99.90;;;;;;4940044;28;89649;-34
2022/07/03 03:46:30;;;;;;;1.00;0.30;;;15.10;99.90;;;;;;4942181;28;90076;-33
2022/07/03 03:48:56;;;;;;;0.25;0.25;;;15.10;99.90;;;;;;4942481;28;89358;-38
2022/07/03 03:51:22;;;;;;;0.30;0.25;;;15.20;99.90;;;;;;4942597;28;90168;-34
2022/07/03 03:53:48;;;;;;;0.20;0.03;;;15.30;99.90;;;;;;4941647;28;89532;-36
2022/07/03 03:56:16;;;;;;;0.20;0.10;;;15.30;99.90;;;;;;4942556;28;89730;-33
2022/07/03 03:58:43;;;;;;;0.20;0.20;;;15.40;99.90;;;;;;4941497;28;89839;-34
2022/07/03 04:01:11;;;;;;;0.20;0.13;;;15.60;99.90;;;;;;4941996;28;89898;-34
2022/07/03 04:03:39;;;;;;;0.28;0.28;;;15.60;99.90;;;;;;4941697;28;88828;-35
2022/07/03 04:06:05;;;;;;;0.20;0.20;;;15.80;99.90;;;;;;4941633;28;90133;-38
2022/07/03 04:08:31;;;;;;;0.28;0.28;;;15.80;99.90;;;;;;4942333;28;89588;-36
2022/07/03 04:10:57;;;;;;;0.43;0.35;;;15.80;99.90;;;;;;4940890;28;90108;-34
2022/07/03 04:13:23;;;;;;;0.20;0.10;;;15.90;99.90;;;;;;4941487;28;89681;-35
2022/07/03 04:15:51;;;;;;;0.20;0.13;;;15.90;99.90;;;;;;4941747;28;89537;-36
2022/07/03 04:18:17;;;;;;;0.27;0.27;;;15.90;99.90;;;;;;4941596;28;87812;-33
2022/07/03 04:20:43;;;;;;;5.88;3.40;;;16.00;99.90;;;;;;4942185;28;89094;-38
2022/07/03 04:23:09;;;;;;;0.35;0.35;;;16.00;99.90;;;;;;4940480;28;91011;-33
2022/07/03 04:25:34;;;;;;;0.65;0.65;;;16.10;99.90;;;;;;4941730;28;90555;-37
2022/07/03 04:28:00;;;;;;;0.20;0.15;;;16.10;99.90;;;;;;4942159;28;89354;-37
2022/07/03 04:30:26;;;;;;;0.38;0.38;;;16.20;99.90;;;;;;4941224;28;90467;-34
2022/07/03 04:32:52;;;;;;;0.25;0.25;;;16.20;99.90;;;;;;4941797;28;89429;-37
2022/07/03 04:35:17;;;;;;;0.30;0.30;;;16.30;99.90;;;;;;4941285;28;90052;-33
2022/07/03 04:37:44;;;;;;;0.60;0.60;;;16.40;99.90;;;;;;4941399;28;89734;-38
2022/07/03 04:40:11;;;;;;;0.57;0.57;;;16.60;99.90;;;;;;4941881;28;89966;-34
2022/07/03 04:42:36;;;;;;;0.20;0.10;;;16.90;99.90;;;;;;4940885;28;89847;-35
2022/07/03 04:45:03;;;;;;;0.28;0.28;;;17.00;99.90;;;;;;4942386;28;89665;-32
2022/07/03 04:47:29;;;;;;;0.20;0.13;;;17.10;99.90;;;;;;4940934;28;90131;-32
2022/07/03 04:49:54;;;;;;;0.20;0.20;;;17.10;99.90;;;;;;4941087;28;90181;-34
2022/07/03 04:52:20;;;;;;;0.20;0.10;;;17.00;99.90;;;;;;4941680;28;89587;-37
2022/07/03 04:54:46;;;;;;;2.65;0.75;;;16.90;99.90;;;;;;4939943;28;89596;-35
2022/07/03 04:57:11;;;;;;;0.55;0.50;;;16.90;99.90;;;;;;4941412;28;88217;-34
2022/07/03 04:59:37;;;;;;;0.30;0.30;;;16.80;99.90;;;;;;4940632;28;90118;-34
2022/07/03 05:02:03;;;;;;;0.20;0.10;;;16.80;99.90;;;;;;4941563;28;89437;-34
2022/07/03 05:04:28;;;;;;;0.28;0.20;;;16.70;99.90;;;;;;4941413;28;89840;-34
2022/07/03 05:06:54;;;;;;;0.20;0.20;;;16.70;99.90;;;;;;4941136;28;90471;-34
2022/07/03 05:09:20;;;;;;;0.20;0.20;;;16.70;99.90;;;;;;4940858;28;90219;-36
2022/07/03 05:11:46;;;;;;;0.40;0.40;;;16.60;99.90;;;;;;4939685;28;90545;-33
2022/07/03 05:14:11;;;;;;;0.20;0.10;;;16.60;99.90;;;;;;4940562;28;90780;-37
2022/07/03 05:16:37;;;;;;;0.20;0.17;;;16.60;99.90;;;;;;4941097;28;89275;-34
2022/07/03 05:19:03;;;;;;;0.47;0.47;;;16.50;99.90;;;;;;4941090;28;89665;-37
2022/07/03 05:21:28;;;;;;;0.75;0.75;;;16.50;99.90;;;;;;4941292;28;89725;-33
2022/07/03 05:23:54;;;;;;;0.20;0.10;;;16.50;99.90;;;;;;4939742;28;89209;-34
2022/07/03 05:26:19;;;;;;;0.30;0.22;;;16.50;99.90;;;;;;4941891;28;90109;-36
2022/07/03 05:28:45;;;;;;;0.20;0.10;;;16.50;99.90;;;;;;4940409;28;90190;-35
2022/07/03 05:31:11;;;;;;;0.20;0.10;;;16.60;99.90;;;;;;4940720;28;90457;-35
2022/07/03 05:33:37;;;;;;;0.30;0.30;;;16.70;99.90;;;;;;4940672;28;89745;-35
2022/07/03 05:36:04;;;;;;;0.35;0.35;;;17.00;99.90;;;;;;4939985;28;89747;-34
2022/07/03 05:41:15;;;;;;;0.30;0.30;;;17.70;99.90;;;;;;4941056;28;89762;-32
2022/07/03 05:43:41;;;;;;;2.00;1.23;;;18.10;99.90;;;;;;4940244;28;90179;-33
2022/07/03 05:46:06;;;;;;;0.52;0.52;;;18.30;99.90;;;;;;4940806;28;89983;-33
2022/07/03 05:48:32;;;;;;;0.30;0.30;;;18.60;99.90;;;;;;4939984;28;90529;-35
2022/07/03 05:50:58;;;;;;;0.30;0.30;;;18.60;99.90;;;;;;4939629;28;88703;-38
2022/07/03 05:53:23;;;;;;;0.38;0.35;;;18.70;99.90;;;;;;4941066;28;90500;-34
2022/07/03 05:55:49;;;;;;;0.20;0.10;;;19.00;99.90;;;;;;4940622;28;89918;-38
2022/07/03 05:58:15;;;;;;;0.20;0.20;;;19.30;99.90;;;;;;4941129;28;90294;-34
2022/07/03 06:00:42;;;;;;;0.20;0.13;;;19.60;99.90;;;;;;4939058;28;90530;-35
2022/07/03 06:03:08;;;;;;;0.20;0.10;;;19.80;99.90;;;;;;4940093;28;90519;-35
2022/07/03 06:05:34;;;;;;;2.95;1.20;;;19.90;99.90;;;;;;4941129;28;87812;-34
2022/07/03 06:08:00;;;;;;;1.10;1.10;;;20.10;99.90;;;;;;4939901;28;91490;-35
2022/07/03 06:10:27;;;;;;;0.63;0.63;;;20.30;99.90;;;;;;4940291;28;89535;-36
2022/07/03 06:12:53;;;;;;;0.30;0.30;;;20.50;99.90;;;;;;4939777;28;91069;-32
2022/07/03 06:15:18;;;;;;;0.20;0.10;;;20.70;99.90;;;;;;4940009;28;88729;-35
2022/07/03 06:17:44;;;;;;;0.28;0.28;;;20.80;99.90;;;;;;4939914;28;90217;-36
2022/07/03 06:20:10;;;;;;;0.20;0.13;;;21.10;99.90;;;;;;4940212;28;89221;-36
2022/07/03 06:22:36;;;;;;;0.25;0.25;;;21.30;99.90;;;;;;4939960;28;88602;-35
2022/07/03 06:25:02;;;;;;;1.33;1.23;;;21.50;99.90;;;;;;4939558;28;90180;-35
2022/07/03 06:27:28;;;;;;;0.20;0.20;;;21.80;99.90;;;;;;4939582;28;89419;-36
2022/07/03 06:29:54;;;;;;;1.23;1.00;;;22.00;99.90;;;;;;4940031;28;89796;-35
2022/07/03 06:32:19;;;;;;;0.28;0.22;;;22.00;99.90;;;;;;4939963;28;89593;-34
2022/07/03 06:34:45;;;;;;;0.20;0.00;;;22.20;99.90;;;;;;4940109;28;89660;-35
2022/07/03 06:37:11;;;;;;;0.20;0.00;;;22.70;99.90;;;;;;4939545;28;90068;-36
2022/07/03 06:39:37;;;;;;;0.20;0.00;;;22.90;99.90;;;;;;4939312;28;91515;-36
2022/07/03 06:42:03;;;;;;;0.20;0.15;;;23.20;99.90;;;;;;4940394;28;89401;-35
2022/07/03 06:44:29;;;;;;;0.20;0.10;;;23.40;99.90;;;;;;4940150;28;89960;-34
2022/07/03 06:46:55;;;;;;;0.85;0.28;;;23.30;99.90;;;;;;4940186;28;90259;-33
2022/07/03 06:49:20;;;;;;;0.20;0.05;;;23.50;99.90;;;;;;4938991;28;90655;-37
2022/07/03 06:51:46;;;;;;;0.30;0.10;;;23.30;99.90;;;;;;4939175;28;90076;-37
2022/07/03 06:54:12;;;;;;;0.20;0.00;;;23.50;99.90;;;;;;4940308;28;89702;-35
2022/07/03 06:56:38;;;;;;;0.20;0.20;;;23.50;99.90;;;;;;4939338;28;90374;-37
2022/07/03 06:59:04;;;;;;;0.20;0.00;;;23.60;99.90;;;;;;4939621;28;89646;-35
2022/07/03 07:01:30;;;;;;;0.20;0.00;;;23.80;99.90;;;;;;4939428;28;89037;-33
2022/07/03 07:03:56;;;;;;;0.20;0.00;;;23.90;99.90;;;;;;4939177;28;89316;-37
2022/07/03 07:06:22;;;;;;;0.20;0.00;;;24.20;99.90;;;;;;4939941;28;90331;-34
2022/07/03 07:08:48;;;;;;;0.20;0.00;;;24.30;99.90;;;;;;4939136;28;89402;-37
2022/07/03 07:11:13;;;;;;;0.63;0.63;;;24.50;99.90;;;;;;4939002;28;89703;-40
2022/07/03 07:13:39;;;;;;;0.20;0.10;;;24.60;99.90;;;;;;4938467;28;88768;-36
2022/07/03 07:16:05;;;;;;;0.38;0.38;;;24.30;99.90;;;;;;4939144;28;90356;-37
2022/07/03 07:18:31;;;;;;;0.35;0.35;;;23.80;99.90;;;;;;4940265;28;89763;-37
2022/07/03 07:20:56;;;;;;;0.28;0.10;;;23.70;99.90;;;;;;4942126;28;89093;-37
2022/07/03 07:23:22;;;;;;;0.20;0.10;;;23.80;99.90;;;;;;4942903;28;88570;-35
2022/07/03 07:25:48;;;;;;;0.20;0.00;;;23.80;99.90;;;;;;4941732;28;90125;-37
2022/07/03 07:28:13;;;;;;;0.30;0.10;;;23.90;99.90;;;;;;4942788;28;89605;-34
2022/07/03 07:30:39;;;;;;;0.20;0.00;;;23.90;99.90;;;;;;4943399;28;90189;-34
2022/07/03 07:33:06;;;;;;;0.20;0.00;;;24.00;99.90;;;;;;4942201;28;90206;-35
2022/07/03 07:35:32;;;;;;;0.32;0.30;;;23.80;99.90;;;;;;4942655;28;90407;-35
2022/07/03 07:37:58;;;;;;;0.20;0.00;;;24.10;99.90;;;;;;4941326;28;91065;-35
2022/07/03 07:40:23;;;;;;;0.20;0.00;;;24.30;99.90;;;;;;4942274;28;90531;-37
2022/07/03 07:42:49;;;;;;;3.03;0.45;;;24.50;99.90;;;;;;4941230;28;87983;-33
2022/07/03 07:45:14;;;;;;;0.20;0.00;;;25.00;99.90;;;;;;4940563;28;90475;-35
2022/07/03 07:47:40;;;;;;;0.28;0.20;;;25.10;99.90;;;;;;4939996;28;89629;-35
2022/07/03 07:50:06;;;;;;;0.30;0.22;;;25.20;99.90;;;;;;4938973;28;90193;-35
2022/07/03 07:52:32;;;;;;;0.20;0.20;;;25.20;99.90;;;;;;4939699;28;90114;-33
2022/07/03 07:54:57;;;;;;;0.20;0.00;;;25.40;99.90;;;;;;4940964;28;90921;-34
2022/07/03 07:57:23;;;;;;;0.20;0.00;;;25.70;95.50;;;;;;4939893;28;89330;-34
2022/07/03 07:59:49;;;;;;;0.20;0.10;;;25.30;99.90;;;;;;4939780;28;89605;-36
2022/07/03 08:07:43;;;;;;;0.65;0.65;;;24.70;99.90;;;;;;4925035;28;90317;-35
2022/07/03 08:10:08;;;;;;;0.20;0.00;;;24.40;99.60;;;;;;4939069;28;89547;-37
2022/07/03 08:12:34;;;;;;;0.20;0.10;;;24.60;99.20;;;;;;4939949;28;88142;-40
2022/07/03 08:15:00;;;;;;;0.60;0.38;;;24.90;99.90;;;;;;4939020;28;90704;-37
2022/07/03 08:17:25;;;;;;;0.20;0.00;;;25.00;99.90;;;;;;4938551;28;89290;-35
2022/07/03 08:19:51;;;;;;;0.20;0.10;;;25.20;91.40;;;;;;4938947;28;90723;-37
2022/07/03 08:22:16;;;;;;;0.98;0.98;;;25.30;95.40;;;;;;4939686;28;89162;-36
2022/07/03 08:24:42;;;;;;;0.22;0.13;;;25.10;96.10;;;;;;4938048;28;92140;-36
2022/07/03 08:27:07;;;;;;;1.65;1.55;;;25.30;99.90;;;;;;4938056;28;90824;-36
2022/07/03 08:29:33;;;;;;;0.20;0.00;;;25.50;99.90;;;;;;4939269;28;92179;-37
2022/07/03 08:31:59;;;;;;;0.20;0.00;;;25.70;99.90;;;;;;4938927;28;89653;-35
2022/07/03 08:34:24;;;;;;;0.40;0.40;;;25.80;99.90;;;;;;4939776;28;90500;-37
2022/07/03 08:36:50;;;;;;;0.20;0.00;;;25.80;99.90;;;;;;4938315;28;89870;-34
2022/07/03 08:39:15;;;;;;;0.25;0.10;;;26.10;99.90;;;;;;4939121;28;89473;-36
2022/07/03 08:41:41;;;;;;;2.75;0.57;;;26.30;96.90;;;;;;4938858;28;89362;-36
2022/07/03 08:44:09;;;;;;;0.20;0.00;;;26.50;97.00;;;;;;4939509;28;89886;-36
2022/07/03 08:46:35;;;;;;;0.20;0.00;;;26.10;82.40;;;;;;4939586;28;89811;-38
2022/07/03 08:49:02;;;;;;;0.20;0.10;;;25.90;87.20;;;;;;4938857;28;88659;-36
2022/07/03 08:51:28;;;;;;;0.20;0.10;;;25.60;98.50;;;;;;4938974;28;88921;-37
2022/07/03 08:53:54;;;;;;;0.85;0.55;;;25.70;99.80;;;;;;4939110;28;90499;-36
2022/07/03 08:56:23;;;;;;;0.40;0.05;;;26.20;99.20;;;;;;4938435;28;90068;-37
2022/07/03 08:58:49;;;;;;;0.90;0.22;;;26.40;99.90;;;;;;4938460;28;89440;-34
2022/07/03 09:01:17;;;;;;;0.30;0.17;;;26.40;91.80;;;;;;4939515;28;89992;-34
2022/07/03 09:03:43;;;;;;;0.38;0.38;;;26.20;97.10;;;;;;4938949;28;89802;-35
2022/07/03 09:06:08;;;;;;;0.20;0.10;;;26.10;98.20;;;;;;4938761;28;92044;-36
2022/07/03 09:08:36;;;;;;;0.20;0.08;;;26.50;94.20;;;;;;4939373;28;89120;-39
2022/07/03 09:11:02;;;;;;;0.20;0.00;;;26.50;95.50;;;;;;4939246;28;88435;-37
2022/07/03 09:13:29;;;;;;;0.20;0.00;;;26.70;86.50;;;;;;4938308;28;90333;-35
2022/07/03 09:15:54;;;;;;;0.20;0.03;;;26.60;95.10;;;;;;4937217;28;91391;-36
2022/07/03 09:18:38;;;;;;;1.70;0.82;;;26.50;87.90;;;;;;4938445;28;90373;-35
2022/07/03 09:21:04;;;;;;;0.20;0.20;;;26.40;95.10;;;;;;4939746;28;89092;-38
2022/07/03 09:23:36;;;;;;;0.20;0.15;;;26.70;89.80;;;;;;4938350;28;89753;-36
2022/07/03 09:26:03;;;;;;;0.40;0.10;;;26.50;93.50;;;;;;4925911;28;89631;-36
2022/07/03 09:28:52;;;;;;;0.20;0.03;;;26.30;92.50;;;;;;4938798;28;90200;-39
2022/07/03 09:31:24;;;;;;;1.75;0.90;;;25.70;99.70;;;;;;4938866;28;89932;-37
2022/07/03 09:33:58;;;;;;;0.20;0.00;;;25.40;98.10;;;;;;4938106;28;90708;-35
2022/07/03 09:36:43;;;;;;;0.20;0.00;;;25.70;99.90;;;;;;4938472;28;89674;-37
2022/07/03 09:39:15;;;;;;;3.90;0.68;;;25.80;99.90;;;;;;4937714;28;89947;-38
2022/07/03 09:42:14;;;;;;;0.20;0.20;;;26.00;99.20;;;;;;4937206;28;89656;-36
2022/07/03 09:44:47;;;;;;;0.30;0.20;;;25.50;98.90;;;;;;4938328;28;89279;-36
2022/07/03 09:47:21;;;;;;;0.20;0.10;;;25.10;99.90;;;;;;4938824;28;91233;-33
2022/07/03 09:49:54;;;;;;;0.38;0.38;;;24.90;99.90;;;;;;4937482;28;89452;-38
2022/07/03 09:52:36;;;;;;;0.35;0.10;;;24.70;99.90;;;;;;4938403;28;89447;-36
2022/07/03 09:55:11;;;;;;;0.20;0.10;;;24.70;99.90;;;;;;4937960;28;89135;-38
2022/07/03 09:57:59;;;;;;;0.20;0.00;;;25.00;99.90;;;;;;4938200;28;89268;-36
2022/07/03 10:00:26;;;;;;;0.20;0.00;;;25.10;99.40;;;;;;4938398;28;89241;-34
2022/07/03 10:03:10;;;;;;;0.20;0.03;;;25.30;99.90;;;;;;4937902;28;89503;-33
2022/07/03 10:05:37;;;;;;;0.20;0.00;;;25.20;95.90;;;;;;4937999;28;89321;-35
2022/07/03 10:08:05;;;;;;;0.20;0.00;;;25.30;81.10;;;;;;4937313;28;92131;-36
2022/07/03 10:10:36;;;;;;;0.20;0.00;;;25.10;96.90;;;;;;4937076;28;91650;-37
2022/07/03 10:13:03;;;;;;;0.20;0.13;;;25.00;98.20;;;;;;4938405;28;88784;-35
2022/07/03 10:15:31;;;;;;;0.20;0.00;;;25.30;98.80;;;;;;4937909;28;91199;-37
2022/07/03 10:17:58;;;;;;;0.20;0.00;;;25.50;92.90;;;;;;4937884;28;90462;-35
2022/07/03 10:20:34;;;;;;;1.10;0.20;;;25.20;90.10;;;;;;4938049;28;89529;-36
2022/07/03 10:23:00;;;;;;;0.20;0.00;;;25.00;96.30;;;;;;4937571;28;89896;-34
2022/07/03 10:25:26;;;;;;;1.33;0.60;;;25.30;90.30;;;;;;4937504;28;90364;-35
2022/07/03 10:27:51;;;;;;;0.20;0.00;;;25.20;79.80;;;;;;4938321;28;90024;-34
2022/07/03 10:30:19;;;;;;;0.20;0.00;;;25.40;73.70;;;;;;4937603;28;90252;-37
2022/07/03 10:32:47;;;;;;;0.30;0.20;;;25.20;73.80;;;;;;4922903;28;89170;-38
2022/07/03 10:35:15;;;;;;;0.20;0.10;;;24.90;75.20;;;;;;4925235;28;90530;-37
2022/07/03 10:38:27;;;;;;;0.20;0.00;;;24.70;91.50;;;;;;4936911;28;89630;-38
2022/07/03 10:46:46;;;;;;;0.20;0.00;;;25.10;83.80;;;;;;4926011;28;90234;-37
2022/07/03 10:49:12;;;;;;;0.20;0.00;;;25.20;87.50;;;;;;4927295;28;90162;-34
2022/07/03 10:52:16;;;;;;;0.30;0.28;;;25.20;85.10;;;;;;4929950;28;89621;-35
2022/07/03 10:54:56;;;;;;;0.20;0.00;;;25.10;90.20;;;;;;4935926;28;89133;-38
2022/07/03 10:57:21;;;;;;;0.20;0.00;;;24.90;91.30;;;;;;4940176;28;91026;-36
2022/07/03 10:59:55;;;;;;;0.20;0.10;;;24.80;94.60;;;;;;4939948;28;89538;-34
2022/07/03 11:02:43;;;;;;;0.20;0.10;;;24.70;87.40;;;;;;4940332;28;91096;-36
2022/07/03 11:05:12;;;;;;;0.20;0.10;;;24.70;90.30;;;;;;4940526;28;89100;-35
2022/07/03 11:07:44;;;;;;;0.45;0.40;;;24.80;86.10;;;;;;4940613;28;90416;-34
2022/07/03 11:10:10;;;;;;;0.20;0.00;;;24.90;87.80;;;;;;4939250;28;88723;-35
2022/07/03 11:13:03;;;;;;;0.20;0.00;;;25.00;73.30;;;;;;4940137;28;89746;-35
2022/07/03 11:15:34;;;;;;;0.20;0.00;;;25.00;69.60;;;;;;4938953;28;88849;-38
2022/07/03 11:18:08;;;;;;;0.20;0.00;;;25.20;72.80;;;;;;4940626;28;90849;-36
2022/07/03 11:20:43;;;;;;;0.20;0.05;;;25.30;69.00;;;;;;4938305;28;89974;-38
2022/07/03 11:23:26;;;;;;;0.20;0.05;;;25.30;65.90;;;;;;4940717;28;89256;-38
2022/07/03 11:25:55;;;;;;;0.20;0.13;;;25.60;76.30;;;;;;4940943;28;88042;-38
2022/07/03 11:28:33;;;;;;;0.20;0.00;;;25.50;74.10;;;;;;4940959;28;90729;-38
2022/07/03 11:31:11;;;;;;;;;;;25.50;70.60;;;;;;4941546;28;89786;-37
2022/07/03 11:33:42;;;;;;;0.20;0.00;;;25.10;74.50;;;;;;4942018;28;88643;-36
2022/07/03 11:36:11;;;;;;;1.02;0.93;;;24.70;71.30;;;;;;4941132;28;88833;-35
2022/07/03 11:38:37;;;;;;;0.20;0.00;;;24.40;75.80;;;;;;4940541;28;89174;-36
2022/07/03 11:41:07;;;;;;;0.20;0.00;;;24.20;76.20;;;;;;4941128;28;89032;-34
2022/07/03 11:43:34;;;;;;;0.20;0.00;;;24.00;80.40;;;;;;4940288;28;89198;-36
2022/07/03 11:46:00;;;;;;;0.20;0.00;;;24.20;89.60;;;;;;4940388;28;89170;-38
2022/07/03 11:48:27;;;;;;;0.20;0.03;;;24.50;89.80;;;;;;4941305;28;90155;-37
2022/07/03 11:51:02;;;;;;;0.20;0.00;;;24.60;85.00;;;;;;4939005;28;91403;-35
2022/07/03 11:53:30;;;;;;;0.73;0.30;;;24.40;85.00;;;;;;4940471;28;90536;-35
2022/07/03 11:56:05;;;;;;;0.20;0.00;;;24.40;92.30;;;;;;4940192;28;88281;-35
2022/07/03 11:58:49;;;;;;;0.20;0.13;;;24.50;88.10;;;;;;4939238;28;91447;-35
2022/07/03 12:01:26;;;;;;;0.20;0.00;;;24.30;86.80;;;;;;4940084;28;89937;-39
2022/07/03 12:03:53;;;;;;;;;;;24.60;82.70;;;;;;4940362;28;89703;-36
2022/07/03 12:06:20;;;;;;;0.20;0.10;;;24.80;74.10;;;;;;4941683;28;88753;-35
2022/07/03 12:08:46;;;;;;;0.20;0.00;;;25.00;71.20;;;;;;4939609;28;89798;-34
2022/07/03 12:11:16;;;;;;;0.40;0.10;;;24.90;78.70;;;;;;4940316;28;89345;-36
2022/07/03 12:13:43;;;;;;;0.20;0.17;;;24.90;80.20;;;;;;4940375;28;89865;-34
2022/07/03 12:16:11;;;;;;;0.20;0.00;;;24.50;81.80;;;;;;4939552;28;89839;-36
2022/07/03 12:18:52;;;;;;;0.20;0.00;;;24.40;89.00;;;;;;4939731;28;90287;-37
2022/07/03 12:21:19;;;;;;;0.20;0.00;;;24.60;80.40;;;;;;4940057;28;89726;-36
2022/07/03 12:23:53;;;;;;;0.20;0.00;;;24.70;79.50;;;;;;4937365;28;90238;-34
2022/07/03 12:26:30;;;;;;;0.20;0.00;;;24.70;79.80;;;;;;4940525;28;88363;-36
2022/07/03 12:28:58;;;;;;;0.20;0.13;;;24.50;76.50;;;;;;4939964;28;90106;-35
2022/07/03 12:31:25;;;;;;;0.30;0.10;;;24.50;81.60;;;;;;4940028;28;90147;-36
2022/07/03 12:33:51;;;;;;;0.20;0.00;;;24.70;75.50;;;;;;4938812;28;90171;-36
2022/07/03 12:36:17;;;;;;;0.20;0.00;;;24.80;79.00;;;;;;4939706;28;88324;-37
2022/07/03 12:38:46;;;;;;;0.20;0.00;;;24.80;77.20;;;;;;4939503;28;90363;-34
2022/07/03 12:41:12;;;;;;;0.20;0.00;;;24.60;78.90;;;;;;4938950;28;90871;-37
2022/07/03 12:43:42;;;;;;;0.20;0.00;;;24.70;80.10;;;;;;4939320;28;90455;-40
2022/07/03 12:46:21;;;;;;;0.20;0.20;;;24.80;77.00;;;;;;4939437;28;89387;-36
2022/07/03 12:48:52;;;;;;;0.20;0.10;;;24.90;75.50;;;;;;4939200;28;90420;-37
2022/07/03 12:51:49;;;;;;;1.35;1.25;;;24.50;77.60;;;;;;4939158;28;90074;-35
2022/07/03 12:54:21;;;;;;;0.35;0.30;;;24.60;72.10;;;;;;4939797;28;88255;-34
2022/07/03 12:59:16;;;;;;;0.20;0.10;;;24.70;71.20;;;;;;4939080;28;88358;-38
2022/07/03 13:00:02;;;;;;;0.20;0.00;;;24.60;73.50;;;;;;4939265;28;90557;-34
2022/07/03 13:02:28;;;;;;;0.22;0.03;;;24.40;73.40;;;;;;4939777;28;89545;-36
2022/07/03 13:04:54;;;;;;;0.20;0.05;;;24.10;76.50;;;;;;4938589;28;89438;-34
2022/07/03 13:07:20;;;;;;;0.20;0.00;;;24.00;76.90;;;;;;4939028;28;90089;-38
2022/07/03 13:09:53;;;;;;;0.20;0.00;;;23.90;87.80;;;;;;4969190;22;91790;-35
2022/07/03 13:12:25;;;;;;;0.20;0.00;;;23.80;91.20;;;;;;4938908;28;90369;-37
2022/07/03 13:15:07;;;;;;;0.20;0.10;;;23.90;93.40;;;;;;4937985;28;90065;-34
2022/07/03 13:17:54;;;;;;;0.20;0.00;;;23.80;97.40;;;;;;4938934;28;87757;-34